Terminal Aerodrome Forecast
Issued by NWS Austin/San Antonio, TX

Current Version | Previous Version | Text Only | Print | Product List | Glossary Off
Versions: 1 2 3 4 5 6 7 8 9 10 11 12 13 14

754
FTUS44 KEWX 302331
TAFAUS
TAF
KAUS 302331Z 0100/0206 08010KT P6SM FEW060 SCT090 SCT200
     FM010400 17004KT P6SM FEW018
     FM011900 14010KT P6SM SCT050=

USA.gov is the U.S. government's official web portal to all federal, state and local government web resources and services.